Time;durP1;ratioP1;P1;durP2;ratioP2;P2;SDS_P1;SDS_P2;PMS_P1;PMS_P2;Temp;Humidity;BMP_temperature;BMP_pressure;BME280_temperature;BME280_humidity;BME280_pressure;Samples;Min_cycle;Max_cycle;Signal;HPM_P1;HPM_P2
2024/04/11 00:00:04;;;;;;;2.00;1.33;;;;;;;;;;5435418;26;19999;-63
2024/04/11 00:02:34;;;;;;;3.83;1.70;;;;;;;;;;5429475;26;20019;-63
2024/04/11 00:05:05;;;;;;;4.03;1.55;;;;;;;;;;5433080;26;20018;-63
2024/04/11 00:07:35;;;;;;;1.60;1.40;;;;;;;;;;5423529;26;20015;-63
2024/04/11 00:10:03;;;;;;;1.80;1.52;;;;;;;;;;5427459;26;20342;-62
2024/04/11 00:12:33;;;;;;;1.90;1.52;;;;;;;;;;5432957;26;20508;-63
2024/04/11 00:15:01;;;;;;;1.50;1.40;;;;;;;;;;5443357;26;20006;-63
2024/04/11 00:17:31;;;;;;;3.58;1.80;;;;;;;;;;5427520;26;20557;-63
2024/04/11 00:19:59;;;;;;;2.28;1.58;;;;;;;;;;5418767;26;20011;-62
2024/04/11 00:22:31;;;;;;;2.17;1.50;;;;;;;;;;5434903;26;20332;-63
2024/04/11 00:24:59;;;;;;;4.35;1.80;;;;;;;;;;5426312;26;20014;-62
2024/04/11 00:27:29;;;;;;;1.60;1.50;;;;;;;;;;5426170;26;20022;-62
2024/04/11 00:29:57;;;;;;;2.97;1.73;;;;;;;;;;5438633;26;20077;-62
2024/04/11 00:32:27;;;;;;;2.10;1.63;;;;;;;;;;5434485;26;20019;-63
2024/04/11 00:34:55;;;;;;;2.70;1.73;;;;;;;;;;5436090;26;20003;-63
2024/04/11 00:37:31;;;;;;;2.83;1.75;;;;;;;;;;5417059;26;20497;-62
2024/04/11 00:40:01;;;;;;;4.80;2.22;;;;;;;;;;5431936;26;20003;-62
2024/04/11 00:42:32;;;;;;;1.90;1.70;;;;;;;;;;5436414;26;20007;-62
2024/04/11 00:44:59;;;;;;;1.60;1.50;;;;;;;;;;5432971;26;20076;-62
2024/04/11 00:47:33;;;;;;;4.68;2.08;;;;;;;;;;5429945;26;20018;-62
2024/04/11 00:50:01;;;;;;;5.05;1.95;;;;;;;;;;5419558;26;20019;-63
2024/04/11 00:52:33;;;;;;;2.78;1.83;;;;;;;;;;5432630;26;20003;-63
2024/04/11 00:55:05;;;;;;;1.98;1.77;;;;;;;;;;5429689;26;20018;-62
2024/04/11 00:57:36;;;;;;;2.58;2.00;;;;;;;;;;5441776;26;19999;-62
2024/04/11 01:00:06;;;;;;;2.17;1.90;;;;;;;;;;5425725;26;20015;-62
2024/04/11 01:02:37;;;;;;;3.97;1.70;;;;;;;;;;5436068;26;20006;-62
2024/04/11 01:05:05;;;;;;;2.88;1.60;;;;;;;;;;5439080;26;20233;-63
2024/04/11 01:07:36;;;;;;;2.13;1.63;;;;;;;;;;5426074;26;20446;-63
2024/04/11 01:10:16;;;;;;;6.10;2.08;;;;;;;;;;5430448;26;19999;-63
2024/04/11 01:12:46;;;;;;;3.65;2.10;;;;;;;;;;5415077;26;20480;-64
2024/04/11 01:15:14;;;;;;;3.70;2.00;;;;;;;;;;5431106;26;20476;-63
2024/04/11 01:17:46;;;;;;;2.30;1.80;;;;;;;;;;5430640;26;20035;-64
2024/04/11 01:20:15;;;;;;;2.38;1.55;;;;;;;;;;5425314;26;20003;-62
2024/04/11 01:22:48;;;;;;;5.07;2.10;;;;;;;;;;5432912;26;20006;-63
2024/04/11 01:25:18;;;;;;;1.65;1.50;;;;;;;;;;5426129;26;20007;-63
2024/04/11 01:27:49;;;;;;;2.45;1.75;;;;;;;;;;5438325;26;20084;-63
2024/04/11 01:30:16;;;;;;;2.88;1.85;;;;;;;;;;5434757;26;19998;-63
2024/04/11 01:32:48;;;;;;;2.78;2.10;;;;;;;;;;5432741;26;20344;-63
2024/04/11 01:35:17;;;;;;;2.85;1.77;;;;;;;;;;5413334;26;20000;-63
2024/04/11 01:37:50;;;;;;;3.70;2.00;;;;;;;;;;5419677;26;20038;-63
2024/04/11 01:40:18;;;;;;;4.45;1.65;;;;;;;;;;5432993;26;20029;-63
2024/04/11 01:42:48;;;;;;;4.15;2.45;;;;;;;;;;5428621;26;20034;-64
2024/04/11 01:45:16;;;;;;;4.63;1.88;;;;;;;;;;5417295;26;20088;-62
2024/04/11 01:47:46;;;;;;;3.25;2.00;;;;;;;;;;5424060;26;20011;-63
2024/04/11 01:50:14;;;;;;;3.00;1.92;;;;;;;;;;5435970;26;20007;-64
2024/04/11 01:52:44;;;;;;;5.55;2.15;;;;;;;;;;5420721;26;20558;-63
2024/04/11 01:55:14;;;;;;;2.78;1.98;;;;;;;;;;5429252;26;19999;-63
2024/04/11 01:57:44;;;;;;;3.10;2.20;;;;;;;;;;5420185;26;20018;-62
2024/04/11 02:00:13;;;;;;;4.78;2.25;;;;;;;;;;5423951;26;20003;-62
2024/04/11 02:02:44;;;;;;;2.63;2.10;;;;;;;;;;5422141;26;20081;-63
2024/04/11 02:05:14;;;;;;;2.47;1.98;;;;;;;;;;5415724;26;20533;-63
2024/04/11 02:07:45;;;;;;;2.28;1.90;;;;;;;;;;5428254;26;20035;-63
2024/04/11 02:10:15;;;;;;;2.70;2.00;;;;;;;;;;5436108;26;20014;-64
2024/04/11 02:12:46;;;;;;;2.28;1.90;;;;;;;;;;5433841;26;20009;-63
2024/04/11 02:15:14;;;;;;;3.72;2.10;;;;;;;;;;5436554;26;20000;-63
2024/04/11 02:17:46;;;;;;;3.67;1.98;;;;;;;;;;5424205;26;20478;-63
2024/04/11 02:20:13;;;;;;;3.50;2.20;;;;;;;;;;5440151;26;20002;-63
2024/04/11 02:22:43;;;;;;;5.60;2.10;;;;;;;;;;5428028;26;19999;-62
2024/04/11 02:25:13;;;;;;;2.92;2.20;;;;;;;;;;5418630;26;20457;-63
2024/04/11 02:27:46;;;;;;;3.13;2.28;;;;;;;;;;5420489;26;20514;-63
2024/04/11 02:30:14;;;;;;;2.08;1.88;;;;;;;;;;5437158;26;20022;-63
2024/04/11 02:32:44;;;;;;;2.67;1.83;;;;;;;;;;5440055;26;20557;-62
2024/04/11 02:35:14;;;;;;;2.58;1.80;;;;;;;;;;5445652;26;20344;-63
2024/04/11 02:37:44;;;;;;;2.47;1.90;;;;;;;;;;5418922;26;20004;-63
2024/04/11 02:40:11;;;;;;;2.97;1.98;;;;;;;;;;5425571;26;20000;-64
2024/04/11 02:42:42;;;;;;;2.83;2.08;;;;;;;;;;5427867;26;20002;-63
2024/04/11 02:45:14;;;;;;;1.80;1.60;;;;;;;;;;5416138;26;20003;-63
2024/04/11 02:47:46;;;;;;;3.50;2.15;;;;;;;;;;5433031;26;20021;-64
2024/04/11 02:50:15;;;;;;;2.33;1.92;;;;;;;;;;5427829;26;20045;-62
2024/04/11 02:52:46;;;;;;;2.40;1.80;;;;;;;;;;5432924;26;20455;-63
2024/04/11 02:55:14;;;;;;;3.88;2.30;;;;;;;;;;5427220;26;20011;-64
2024/04/11 02:57:45;;;;;;;3.70;2.45;;;;;;;;;;5427538;26;20003;-64
2024/04/11 03:00:16;;;;;;;2.90;2.30;;;;;;;;;;5427206;26;20010;-63
2024/04/11 03:02:47;;;;;;;4.03;2.17;;;;;;;;;;5421950;26;20003;-63
2024/04/11 03:05:16;;;;;;;4.28;2.20;;;;;;;;;;5431207;26;20007;-63
2024/04/11 03:07:49;;;;;;;2.85;2.10;;;;;;;;;;5426898;26;20025;-63
2024/04/11 03:10:16;;;;;;;3.03;2.50;;;;;;;;;;5439634;26;20011;-63
2024/04/11 03:12:46;;;;;;;2.03;1.83;;;;;;;;;;5428838;26;20538;-63
2024/04/11 03:15:18;;;;;;;2.08;1.85;;;;;;;;;;5422041;26;20462;-63
2024/04/11 03:17:50;;;;;;;3.03;2.20;;;;;;;;;;5426967;26;20034;-63
2024/04/11 03:20:17;;;;;;;3.40;2.13;;;;;;;;;;5432748;26;20069;-63
2024/04/11 03:22:48;;;;;;;3.15;2.35;;;;;;;;;;5420740;26;20011;-64
2024/04/11 03:25:15;;;;;;;2.33;2.08;;;;;;;;;;5441714;26;19999;-63
2024/04/11 03:27:46;;;;;;;3.97;2.10;;;;;;;;;;5425251;26;20073;-63
2024/04/11 03:30:14;;;;;;;6.20;2.30;;;;;;;;;;5443276;26;20003;-63
2024/04/11 03:32:46;;;;;;;3.70;2.72;;;;;;;;;;5448388;26;20019;-63
2024/04/11 03:35:14;;;;;;;2.97;2.17;;;;;;;;;;5443678;26;20532;-62
2024/04/11 03:37:45;;;;;;;4.50;2.60;;;;;;;;;;5428654;26;20004;-64
2024/04/11 03:40:12;;;;;;;4.05;2.10;;;;;;;;;;5438840;26;20003;-63
2024/04/11 03:42:42;;;;;;;2.60;2.28;;;;;;;;;;5426447;26;20032;-63
2024/04/11 03:45:22;;;;;;;5.13;2.25;;;;;;;;;;5443124;26;19999;-63
2024/04/11 03:47:55;;;;;;;3.50;2.35;;;;;;;;;;5438235;26;20075;-62
2024/04/11 03:50:24;;;;;;;2.42;2.10;;;;;;;;;;5432806;26;20003;-63
2024/04/11 03:52:54;;;;;;;2.67;2.28;;;;;;;;;;5442699;26;20472;-63
2024/04/11 03:55:22;;;;;;;4.93;2.40;;;;;;;;;;5418879;26;20022;-63
2024/04/11 03:57:52;;;;;;;2.70;2.30;;;;;;;;;;5424563;26;20012;-62
2024/04/11 04:00:24;;;;;;;2.00;1.80;;;;;;;;;;5435955;26;20003;-62
2024/04/11 04:02:57;;;;;;;3.47;2.50;;;;;;;;;;5442735;26;20018;-63
2024/04/11 04:05:25;;;;;;;3.60;2.60;;;;;;;;;;5443675;26;20055;-63
2024/04/11 04:07:56;;;;;;;3.00;2.60;;;;;;;;;;5434180;26;19999;-62
2024/04/11 04:10:23;;;;;;;5.18;2.40;;;;;;;;;;5428724;26;20451;-63
2024/04/11 04:12:57;;;;;;;2.85;2.28;;;;;;;;;;5438488;26;20011;-64
2024/04/11 04:15:25;;;;;;;3.90;2.80;;;;;;;;;;5440914;26;20007;-63
2024/04/11 04:17:58;;;;;;;3.17;2.25;;;;;;;;;;5440968;26;19999;-62
2024/04/11 04:20:25;;;;;;;2.40;2.20;;;;;;;;;;5430101;26;20459;-63
2024/04/11 04:22:56;;;;;;;3.80;2.78;;;;;;;;;;5428756;26;20083;-63
2024/04/11 04:25:27;;;;;;;2.75;2.45;;;;;;;;;;5432721;26;20009;-64
2024/04/11 04:27:57;;;;;;;4.00;2.63;;;;;;;;;;5447681;26;19999;-63
2024/04/11 04:30:25;;;;;;;3.75;2.50;;;;;;;;;;5439295;26;20003;-63
2024/04/11 04:32:58;;;;;;;3.47;2.78;;;;;;;;;;5438510;26;19995;-62
2024/04/11 04:35:28;;;;;;;2.65;2.10;;;;;;;;;;5428891;26;20003;-62
2024/04/11 04:37:58;;;;;;;5.05;2.70;;;;;;;;;;5440103;26;20002;-63
2024/04/11 04:40:26;;;;;;;3.83;2.42;;;;;;;;;;5432896;26;20463;-63
2024/04/11 04:42:58;;;;;;;4.70;2.55;;;;;;;;;;5426150;26;20010;-63
2024/04/11 04:45:26;;;;;;;3.35;2.67;;;;;;;;;;5422957;26;20030;-64
2024/04/11 04:47:59;;;;;;;3.08;2.42;;;;;;;;;;5401144;26;20003;-63
2024/04/11 04:50:28;;;;;;;3.38;2.55;;;;;;;;;;5421238;26;19999;-63
2024/04/11 04:53:00;;;;;;;2.80;2.20;;;;;;;;;;5430580;26;20478;-62
2024/04/11 04:55:31;;;;;;;4.38;3.20;;;;;;;;;;5416332;26;20081;-62
2024/04/11 04:58:01;;;;;;;3.60;2.45;;;;;;;;;;5424451;26;20000;-62
2024/04/11 05:00:29;;;;;;;4.35;2.63;;;;;;;;;;5423055;26;20444;-63
2024/04/11 05:03:08;;;;;;;3.70;2.75;;;;;;;;;;5429146;26;20812;-64
2024/04/11 05:05:36;;;;;;;6.35;2.70;;;;;;;;;;5424633;26;20296;-63
2024/04/11 05:08:08;;;;;;;4.60;2.63;;;;;;;;;;5418170;26;20002;-65
2024/04/11 05:10:37;;;;;;;3.63;2.80;;;;;;;;;;5425514;26;20007;-62
2024/04/11 05:13:09;;;;;;;2.47;2.25;;;;;;;;;;5431003;26;20010;-63
2024/04/11 05:15:37;;;;;;;3.78;2.35;;;;;;;;;;5423173;26;20022;-64
2024/04/11 05:18:10;;;;;;;2.53;2.28;;;;;;;;;;5412551;26;20007;-62
2024/04/11 05:20:38;;;;;;;7.72;2.58;;;;;;;;;;5427612;26;20003;-63
2024/04/11 05:23:09;;;;;;;3.47;2.35;;;;;;;;;;5422375;26;20007;-64
2024/04/11 05:25:43;;;;;;;7.50;3.03;;;;;;;;;;5418855;26;20006;-64
2024/04/11 05:28:16;;;;;;;3.17;2.47;;;;;;;;;;5433739;26;20336;-63
2024/04/11 05:30:43;;;;;;;4.22;2.38;;;;;;;;;;5432868;26;20007;-61
2024/04/11 05:33:16;;;;;;;3.42;2.58;;;;;;;;;;5427681;26;20448;-61
2024/04/11 05:35:44;;;;;;;2.40;2.20;;;;;;;;;;5419051;26;20015;-62
2024/04/11 05:38:15;;;;;;;3.00;2.33;;;;;;;;;;5417964;26;20385;-61
2024/04/11 05:40:42;;;;;;;3.30;2.30;;;;;;;;;;5418022;26;20012;-62
2024/04/11 05:43:15;;;;;;;3.95;2.53;;;;;;;;;;5420263;26;20012;-62
2024/04/11 05:45:57;;;;;;;3.78;2.60;;;;;;;;;;5419488;26;20666;-61
2024/04/11 05:48:31;;;;;;;6.70;3.10;;;;;;;;;;5410518;26;20007;-62
2024/04/11 05:50:59;;;;;;;;;;;;;;;;;;5420662;26;20004;-61
2024/04/11 05:53:29;;;;;;;2.97;2.33;;;;;;;;;;5415144;26;20566;-60
2024/04/11 05:55:57;;;;;;;3.20;2.70;;;;;;;;;;5432162;26;20007;-62
2024/04/11 05:58:27;;;;;;;6.90;3.17;;;;;;;;;;5431652;26;19999;-62
2024/04/11 06:00:56;;;;;;;4.40;3.05;;;;;;;;;;5430859;26;20003;-63
2024/04/11 06:03:28;;;;;;;4.72;3.38;;;;;;;;;;5423249;26;19998;-63
2024/04/11 06:05:58;;;;;;;5.20;3.08;;;;;;;;;;5429903;26;20007;-62
2024/04/11 06:08:28;;;;;;;4.95;3.22;;;;;;;;;;5431737;26;20003;-62
2024/04/11 06:10:56;;;;;;;4.78;3.50;;;;;;;;;;5432942;26;20369;-63
2024/04/11 06:13:27;;;;;;;5.32;3.88;;;;;;;;;;5427575;26;20360;-62
2024/04/11 06:15:55;;;;;;;6.95;3.63;;;;;;;;;;5422591;26;20365;-63
2024/04/11 06:18:28;;;;;;;7.60;3.95;;;;;;;;;;5432336;26;19995;-63
2024/04/11 06:20:58;;;;;;;6.88;3.70;;;;;;;;;;5428060;26;20036;-63
2024/04/11 06:23:29;;;;;;;5.95;3.55;;;;;;;;;;5431404;26;20007;-63
2024/04/11 06:25:58;;;;;;;7.65;4.25;;;;;;;;;;5431121;26;20022;-64
2024/04/11 06:28:28;;;;;;;6.35;3.80;;;;;;;;;;5428838;26;20022;-62
2024/04/11 06:30:56;;;;;;;6.47;3.72;;;;;;;;;;5427537;26;19999;-62
2024/04/11 06:33:27;;;;;;;8.32;3.88;;;;;;;;;;5429868;26;20070;-63
2024/04/11 06:35:54;;;;;;;5.47;3.92;;;;;;;;;;5431439;26;20007;-63
2024/04/11 06:38:31;;;;;;;9.45;3.95;;;;;;;;;;5429588;26;21155;-63
2024/04/11 06:40:58;;;;;;;4.88;3.70;;;;;;;;;;5426432;26;20333;-64
2024/04/11 06:43:28;;;;;;;4.68;3.88;;;;;;;;;;5431002;26;20003;-62
2024/04/11 06:45:56;;;;;;;6.10;3.80;;;;;;;;;;5422219;26;20542;-62
2024/04/11 06:48:27;;;;;;;6.43;4.10;;;;;;;;;;5427324;26;20011;-63
2024/04/11 06:50:56;;;;;;;6.45;4.03;;;;;;;;;;5425400;26;20003;-63
2024/04/11 06:53:30;;;;;;;6.20;4.03;;;;;;;;;;5427576;26;20007;-62
2024/04/11 06:55:59;;;;;;;4.10;3.35;;;;;;;;;;5431350;26;20023;-62
2024/04/11 06:58:32;;;;;;;4.50;3.15;;;;;;;;;;5434071;26;20023;-62
2024/04/11 07:01:00;;;;;;;4.82;3.05;;;;;;;;;;5426955;26;20459;-64
2024/04/11 07:03:30;;;;;;;6.00;3.58;;;;;;;;;;5429622;26;20026;-63
2024/04/11 07:06:00;;;;;;;8.35;3.83;;;;;;;;;;5433135;26;20440;-63
2024/04/11 07:08:34;;;;;;;6.35;3.47;;;;;;;;;;5429365;26;20456;-64
2024/04/11 07:11:18;;;;;;;5.45;4.00;;;;;;;;;;5429786;26;20084;-64
2024/04/11 07:13:50;;;;;;;4.47;3.42;;;;;;;;;;5424724;26;20493;-64
2024/04/11 07:16:20;;;;;;;8.15;3.63;;;;;;;;;;5422912;26;20036;-62
2024/04/11 07:18:54;;;;;;;6.10;3.60;;;;;;;;;;5427623;26;19998;-61
2024/04/11 07:21:25;;;;;;;3.88;3.15;;;;;;;;;;5428907;26;20475;-62
2024/04/11 07:23:59;;;;;;;4.47;3.22;;;;;;;;;;5426186;26;20003;-62
2024/04/11 07:26:29;;;;;;;4.40;3.07;;;;;;;;;;5424814;26;20010;-63
2024/04/11 07:29:00;;;;;;;3.28;2.70;;;;;;;;;;5427807;26;20305;-62
2024/04/11 07:31:28;;;;;;;4.03;3.20;;;;;;;;;;5426133;26;20011;-63
2024/04/11 07:33:59;;;;;;;3.55;3.20;;;;;;;;;;5426398;26;20006;-63
2024/04/11 07:36:28;;;;;;;8.43;3.17;;;;;;;;;;5422487;26;20448;-63
2024/04/11 07:39:01;;;;;;;3.78;2.88;;;;;;;;;;5420296;26;20017;-63
2024/04/11 07:41:44;;;;;;;5.43;3.05;;;;;;;;;;5428178;26;20057;-63
2024/04/11 07:44:17;;;;;;;4.75;2.92;;;;;;;;;;5426038;26;20030;-61
2024/04/11 07:46:46;;;;;;;3.55;2.63;;;;;;;;;;5425342;26;20059;-62
2024/04/11 07:49:37;;;;;;;6.05;3.10;;;;;;;;;;5428794;26;20012;-61
2024/04/11 07:52:05;;;;;;;4.63;2.58;;;;;;;;;;5422929;26;20029;-62
2024/04/11 07:54:38;;;;;;;3.65;2.72;;;;;;;;;;5425966;26;20034;-64
2024/04/11 07:57:16;;;;;;;3.60;3.10;;;;;;;;;;5427803;26;20572;-63
2024/04/11 07:59:47;;;;;;;3.00;2.55;;;;;;;;;;5427219;26;20003;-61
2024/04/11 08:02:15;;;;;;;4.57;2.60;;;;;;;;;;5426859;26;20462;-62
2024/04/11 08:04:45;;;;;;;4.40;2.60;;;;;;;;;;5426581;26;20474;-61
2024/04/11 08:07:13;;;;;;;6.18;3.00;;;;;;;;;;5423253;26;20003;-65
2024/04/11 08:09:55;;;;;;;4.45;2.70;;;;;;;;;;5425654;26;20014;-63
2024/04/11 08:12:23;;;;;;;3.60;2.60;;;;;;;;;;5422056;26;20543;-63
2024/04/11 08:14:54;;;;;;;5.32;2.47;;;;;;;;;;5423255;26;20012;-64
2024/04/11 08:17:21;;;;;;;3.72;2.42;;;;;;;;;;5429412;26;20628;-63
2024/04/11 08:19:52;;;;;;;3.40;2.40;;;;;;;;;;5424802;26;20025;-64
2024/04/11 08:22:25;;;;;;;5.22;2.55;;;;;;;;;;5428623;26;20003;-64
2024/04/11 08:24:58;;;;;;;4.72;2.72;;;;;;;;;;5426322;26;20077;-64
2024/04/11 08:27:25;;;;;;;4.78;2.80;;;;;;;;;;5424992;26;20023;-62
2024/04/11 08:29:56;;;;;;;3.83;2.83;;;;;;;;;;5425805;26;20083;-62
2024/04/11 08:32:23;;;;;;;3.58;2.63;;;;;;;;;;5426746;26;21633;-65
2024/04/11 08:34:54;;;;;;;4.68;2.72;;;;;;;;;;5427271;26;20010;-63
2024/04/11 08:37:22;;;;;;;4.35;2.60;;;;;;;;;;5430253;26;20460;-63
2024/04/11 08:39:52;;;;;;;4.38;3.10;;;;;;;;;;5429054;26;20034;-64
2024/04/11 08:42:23;;;;;;;4.78;2.70;;;;;;;;;;5422681;26;20034;-65
2024/04/11 08:44:57;;;;;;;5.65;2.90;;;;;;;;;;5428492;26;20023;-64
2024/04/11 08:47:25;;;;;;;3.00;2.50;;;;;;;;;;5426431;26;20019;-63
2024/04/11 08:49:56;;;;;;;4.78;2.65;;;;;;;;;;5427022;26;20010;-65
2024/04/11 08:52:24;;;;;;;5.15;3.10;;;;;;;;;;5434956;26;20018;-62
2024/04/11 08:54:55;;;;;;;5.15;2.90;;;;;;;;;;5430778;26;20003;-65
2024/04/11 08:57:27;;;;;;;4.07;2.83;;;;;;;;;;5427755;26;20075;-64
2024/04/11 08:59:58;;;;;;;3.42;2.92;;;;;;;;;;5427285;26;20043;-66
2024/04/11 09:02:26;;;;;;;2.92;2.40;;;;;;;;;;5429036;26;20006;-63
2024/04/11 09:04:57;;;;;;;3.55;2.72;;;;;;;;;;5428566;26;20003;-65
2024/04/11 09:07:37;;;;;;;5.13;3.15;;;;;;;;;;5424896;26;20036;-66
2024/04/11 09:10:07;;;;;;;4.50;3.08;;;;;;;;;;5428494;26;20805;-69
2024/04/11 09:12:37;;;;;;;4.88;3.35;;;;;;;;;;5427131;26;20025;-68
2024/04/11 09:15:11;;;;;;;5.97;2.83;;;;;;;;;;5425129;26;20000;-67
2024/04/11 09:17:39;;;;;;;4.60;3.45;;;;;;;;;;5415171;26;20012;-69
2024/04/11 09:20:12;;;;;;;4.70;3.10;;;;;;;;;;5427401;26;20025;-67
2024/04/11 09:22:47;;;;;;;4.30;2.80;;;;;;;;;;5426650;26;20445;-68
2024/04/11 09:25:17;;;;;;;;;;;;;;;;;;5426798;26;19999;-68
2024/04/11 09:27:50;;;;;;;3.95;2.90;;;;;;;;;;5423958;26;19938;-68
2024/04/11 09:30:26;;;;;;;3.92;3.40;;;;;;;;;;5426065;26;20486;-68
2024/04/11 09:32:56;;;;;;;7.13;3.47;;;;;;;;;;5426505;26;20014;-68
2024/04/11 09:35:27;;;;;;;3.08;2.78;;;;;;;;;;5427891;26;20018;-67
2024/04/11 09:37:59;;;;;;;4.45;2.70;;;;;;;;;;5425579;26;20007;-68
2024/04/11 09:40:33;;;;;;;4.63;3.13;;;;;;;;;;5428538;26;20014;-68
2024/04/11 09:43:06;;;;;;;3.38;2.65;;;;;;;;;;5425172;26;20013;-68
2024/04/11 09:45:41;;;;;;;4.22;3.00;;;;;;;;;;5428088;26;20007;-68
2024/04/11 09:48:12;;;;;;;4.53;2.95;;;;;;;;;;5459882;26;20025;-68
2024/04/11 09:50:43;;;;;;;5.07;3.20;;;;;;;;;;5427698;26;20042;-67
2024/04/11 09:53:14;;;;;;;4.35;3.00;;;;;;;;;;5424182;26;20019;-68
2024/04/11 09:55:44;;;;;;;3.33;2.88;;;;;;;;;;5427542;26;20024;-68
2024/04/11 09:58:18;;;;;;;4.38;2.80;;;;;;;;;;5427316;26;20013;-68
2024/04/11 10:01:04;;;;;;;3.15;2.78;;;;;;;;;;5423545;26;20060;-68
2024/04/11 10:03:33;;;;;;;3.75;2.90;;;;;;;;;;5425064;26;20068;-68
2024/04/11 10:06:04;;;;;;;4.22;2.80;;;;;;;;;;5427230;26;20018;-68
2024/04/11 10:08:33;;;;;;;4.28;2.88;;;;;;;;;;5427116;26;20026;-68
2024/04/11 10:11:10;;;;;;;4.55;2.75;;;;;;;;;;5424575;26;20014;-68
2024/04/11 10:13:42;;;;;;;5.30;3.35;;;;;;;;;;5424481;26;20072;-67
2024/04/11 10:16:21;;;;;;;5.05;2.75;;;;;;;;;;5423108;26;20080;-68
2024/04/11 10:19:04;;;;;;;4.15;3.28;;;;;;;;;;5426218;26;20018;-68
2024/04/11 10:21:40;;;;;;;2.40;2.10;;;;;;;;;;5426171;26;20029;-68
2024/04/11 10:24:23;;;;;;;2.67;2.40;;;;;;;;;;5429354;26;20650;-67
2024/04/11 10:26:54;;;;;;;4.30;2.63;;;;;;;;;;5423755;26;20394;-68
2024/04/11 10:29:26;;;;;;;3.00;2.45;;;;;;;;;;5428840;26;20003;-68
2024/04/11 10:31:59;;;;;;;2.80;2.20;;;;;;;;;;5421133;26;20080;-68
2024/04/11 10:34:34;;;;;;;3.80;2.65;;;;;;;;;;5420436;26;20350;-68
2024/04/11 10:37:07;;;;;;;2.80;2.03;;;;;;;;;;5427131;26;20441;-68
2024/04/11 10:39:35;;;;;;;2.58;1.90;;;;;;;;;;5427593;26;19999;-68
2024/04/11 10:42:07;;;;;;;2.85;2.10;;;;;;;;;;5426112;26;20715;-70
2024/04/11 10:44:38;;;;;;;3.20;2.22;;;;;;;;;;5427335;26;20413;-68
2024/04/11 10:47:13;;;;;;;6.05;2.70;;;;;;;;;;5420095;26;20380;-67
2024/04/11 10:49:41;;;;;;;3.53;2.40;;;;;;;;;;5425641;26;20027;-68
2024/04/11 10:52:12;;;;;;;5.63;2.85;;;;;;;;;;5425185;26;20007;-68
2024/04/11 10:54:42;;;;;;;4.68;3.10;;;;;;;;;;5423628;26;20030;-69
2024/04/11 10:57:14;;;;;;;4.53;2.90;;;;;;;;;;5423132;26;20007;-69
2024/04/11 10:59:50;;;;;;;3.38;2.30;;;;;;;;;;5423403;26;20000;-69
2024/04/11 11:02:23;;;;;;;4.78;2.38;;;;;;;;;;5424651;26;20013;-67
2024/04/11 11:04:54;;;;;;;3.05;2.33;;;;;;;;;;5425362;26;20394;-68
2024/04/11 11:07:31;;;;;;;3.08;2.60;;;;;;;;;;5421933;26;20015;-69
2024/04/11 11:10:04;;;;;;;2.70;2.20;;;;;;;;;;5422764;26;20002;-69
2024/04/11 11:12:37;;;;;;;2.63;2.30;;;;;;;;;;5426496;26;20007;-69
2024/04/11 11:15:11;;;;;;;2.42;2.20;;;;;;;;;;5424047;26;19999;-69
2024/04/11 11:17:42;;;;;;;2.78;2.03;;;;;;;;;;5421168;26;20014;-69
2024/04/11 11:20:10;;;;;;;3.40;2.38;;;;;;;;;;5423084;26;20015;-69
2024/04/11 11:22:41;;;;;;;2.83;1.95;;;;;;;;;;5423176;26;20018;-70
2024/04/11 11:25:08;;;;;;;3.08;2.08;;;;;;;;;;5426623;26;20022;-68
2024/04/11 11:27:40;;;;;;;3.63;2.60;;;;;;;;;;5423549;26;20026;-68
2024/04/11 11:30:15;;;;;;;2.35;2.15;;;;;;;;;;5425639;26;20006;-69
2024/04/11 11:32:49;;;;;;;2.55;2.30;;;;;;;;;;5424423;26;20076;-71
2024/04/11 11:35:18;;;;;;;3.70;2.20;;;;;;;;;;5429495;26;20105;-68
2024/04/11 11:37:49;;;;;;;2.67;1.95;;;;;;;;;;5424883;26;21588;-66
2024/04/11 11:43:16;;;;;;;1.75;1.65;;;;;;;;;;5399407;26;20003;-67
2024/04/11 11:48:31;;;;;;;3.15;2.17;;;;;;;;;;5428354;26;21522;-67
2024/04/11 11:51:05;;;;;;;2.55;2.10;;;;;;;;;;5425840;26;20069;-67
2024/04/11 11:53:45;;;;;;;2.88;1.70;;;;;;;;;;5427680;26;21317;-68
2024/04/11 11:56:13;;;;;;;4.47;2.65;;;;;;;;;;5429116;26;20007;-68
2024/04/11 11:58:43;;;;;;;1.90;1.80;;;;;;;;;;5429137;26;20014;-69
2024/04/11 12:01:28;;;;;;;2.33;2.08;;;;;;;;;;5428010;26;21145;-68
2024/04/11 12:03:59;;;;;;;2.30;2.05;;;;;;;;;;5426361;26;19994;-68
2024/04/11 12:06:33;;;;;;;2.53;2.20;;;;;;;;;;5425036;26;20608;-67
2024/04/11 12:09:10;;;;;;;2.25;2.05;;;;;;;;;;5426664;26;20018;-67
2024/04/11 12:11:49;;;;;;;3.38;2.20;;;;;;;;;;5426217;26;20547;-68
2024/04/11 12:14:28;;;;;;;3.38;2.28;;;;;;;;;;5424697;26;20013;-69
2024/04/11 12:17:02;;;;;;;2.08;1.88;;;;;;;;;;5422604;26;20003;-69
2024/04/11 12:19:35;;;;;;;2.10;1.90;;;;;;;;;;5426258;26;20463;-68
2024/04/11 12:22:11;;;;;;;2.35;1.95;;;;;;;;;;5425927;26;20003;-69
2024/04/11 12:24:41;;;;;;;3.47;2.00;;;;;;;;;;5436233;26;20022;-68
2024/04/11 12:27:13;;;;;;;1.90;1.73;;;;;;;;;;5437580;26;20012;-68
2024/04/11 12:29:44;;;;;;;2.03;1.83;;;;;;;;;;5439883;26;20038;-67
2024/04/11 12:32:17;;;;;;;2.22;2.03;;;;;;;;;;5437400;26;20011;-67
2024/04/11 12:34:48;;;;;;;1.60;1.50;;;;;;;;;;5438263;26;20011;-69
2024/04/11 12:37:16;;;;;;;2.22;2.03;;;;;;;;;;5438497;26;21105;-69
2024/04/11 12:39:53;;;;;;;2.72;1.98;;;;;;;;;;5439574;26;20042;-69
2024/04/11 12:42:22;;;;;;;2.90;1.67;;;;;;;;;;5433487;26;20003;-68
2024/04/11 12:44:55;;;;;;;2.42;1.80;;;;;;;;;;5432224;26;20007;-68
2024/04/11 12:47:38;;;;;;;3.70;1.80;;;;;;;;;;5433303;26;20106;-68
2024/04/11 12:50:12;;;;;;;3.33;1.67;;;;;;;;;;5437588;26;20018;-68
2024/04/11 12:52:44;;;;;;;1.90;1.60;;;;;;;;;;5437283;26;20015;-69
2024/04/11 12:55:24;;;;;;;2.47;1.95;;;;;;;;;;5436294;26;20471;-66
2024/04/11 12:58:01;;;;;;;4.47;2.17;;;;;;;;;;5439880;26;20030;-68
2024/04/11 13:00:43;;;;;;;2.38;1.73;;;;;;;;;;5437424;26;20003;-68
2024/04/11 13:03:18;;;;;;;2.28;1.80;;;;;;;;;;5434532;26;20075;-68
2024/04/11 13:05:53;;;;;;;2.40;2.10;;;;;;;;;;5413429;26;20441;-69
2024/04/11 13:08:22;;;;;;;2.53;2.03;;;;;;;;;;5414804;26;20008;-68
2024/04/11 13:11:06;;;;;;;2.80;2.05;;;;;;;;;;5418534;26;20010;-69
2024/04/11 13:13:39;;;;;;;2.15;1.83;;;;;;;;;;5418352;26;20014;-69
2024/04/11 13:16:12;;;;;;;2.42;1.70;;;;;;;;;;5414574;26;20003;-69
2024/04/11 13:18:47;;;;;;;3.80;2.60;;;;;;;;;;5424654;26;20022;-69
2024/04/11 13:21:31;;;;;;;3.67;2.30;;;;;;;;;;5413637;26;20015;-70
2024/04/11 13:23:59;;;;;;;4.80;3.25;;;;;;;;;;5421578;26;20427;-67
2024/04/11 13:26:35;;;;;;;3.13;2.30;;;;;;;;;;5411368;26;19995;-68
2024/04/11 13:29:07;;;;;;;2.78;2.22;;;;;;;;;;5415240;26;20476;-69
2024/04/11 13:31:38;;;;;;;5.32;2.80;;;;;;;;;;5412237;26;20046;-67
2024/04/11 13:34:08;;;;;;;3.10;2.60;;;;;;;;;;5416228;26;20014;-67
2024/04/11 13:36:41;;;;;;;4.03;2.30;;;;;;;;;;5411793;26;20007;-67
2024/04/11 13:39:13;;;;;;;3.33;2.60;;;;;;;;;;5419221;26;20014;-68
2024/04/11 13:41:51;;;;;;;3.38;2.72;;;;;;;;;;5416596;26;20478;-67
2024/04/11 13:44:22;;;;;;;3.20;2.50;;;;;;;;;;5415035;26;20022;-68
2024/04/11 13:46:57;;;;;;;3.42;2.53;;;;;;;;;;5414518;26;20543;-68
2024/04/11 13:49:30;;;;;;;3.22;2.35;;;;;;;;;;5413454;26;20003;-69
2024/04/11 13:52:18;;;;;;;4.93;2.55;;;;;;;;;;5412012;26;20014;-68
2024/04/11 13:54:46;;;;;;;5.15;3.10;;;;;;;;;;5417083;26;20015;-69
2024/04/11 13:57:20;;;;;;;3.17;2.33;;;;;;;;;;5419451;26;20006;-69
2024/04/11 13:59:54;;;;;;;4.13;2.50;;;;;;;;;;5415106;26;20056;-69
2024/04/11 14:02:46;;;;;;;2.88;2.33;;;;;;;;;;5409931;26;20020;-69
2024/04/11 14:05:29;;;;;;;2.55;1.98;;;;;;;;;;5410184;26;20028;-68
2024/04/11 14:08:01;;;;;;;2.95;2.40;;;;;;;;;;5416358;26;20019;-69
2024/04/11 14:10:29;;;;;;;2.92;2.33;;;;;;;;;;5413801;26;20018;-69
2024/04/11 14:12:59;;;;;;;3.10;2.67;;;;;;;;;;5411531;26;20509;-69
2024/04/11 14:15:27;;;;;;;3.05;2.30;;;;;;;;;;5413883;26;20046;-69
2024/04/11 14:17:57;;;;;;;2.78;2.45;;;;;;;;;;5411900;26;20014;-69
2024/04/11 14:20:31;;;;;;;2.92;2.60;;;;;;;;;;5415128;26;20077;-70
2024/04/11 14:26:07;;;;;;;2.20;2.00;;;;;;;;;;5468619;25;20332;-66
2024/04/11 14:28:35;;;;;;;5.97;3.00;;;;;;;;;;5405775;26;20015;-65
2024/04/11 14:31:17;;;;;;;3.38;2.22;;;;;;;;;;5416141;26;20004;-66
2024/04/11 14:36:37;;;;;;;;;;;;;;;;;;5409052;26;20361;-67
2024/04/11 14:39:09;;;;;;;2.50;1.90;;;;;;;;;;5408065;26;20976;-68
2024/04/11 14:41:40;;;;;;;4.00;2.42;;;;;;;;;;5410101;26;20007;-66
2024/04/11 14:44:11;;;;;;;2.83;2.13;;;;;;;;;;5411085;26;20011;-66
2024/04/11 14:46:39;;;;;;;3.80;2.53;;;;;;;;;;5409662;26;20533;-66
2024/04/11 14:49:09;;;;;;;2.47;2.28;;;;;;;;;;5407782;26;20007;-67
2024/04/11 14:51:40;;;;;;;3.03;2.40;;;;;;;;;;5409808;26;20079;-65
2024/04/11 14:54:15;;;;;;;3.30;2.70;;;;;;;;;;5404048;26;20085;-66
2024/04/11 14:56:48;;;;;;;3.05;2.72;;;;;;;;;;5408440;26;20521;-66
2024/04/11 14:59:19;;;;;;;2.83;2.40;;;;;;;;;;5407278;26;20012;-67
2024/04/11 15:01:53;;;;;;;4.00;2.65;;;;;;;;;;5407770;26;20818;-66
2024/04/11 15:04:28;;;;;;;3.47;2.88;;;;;;;;;;5404830;26;20091;-66
2024/04/11 15:06:57;;;;;;;3.08;2.60;;;;;;;;;;5409253;26;20047;-66
2024/04/11 15:09:34;;;;;;;4.60;2.75;;;;;;;;;;5408605;26;20011;-66
2024/04/11 15:12:13;;;;;;;3.53;2.17;;;;;;;;;;5408622;26;20019;-68
2024/04/11 15:14:43;;;;;;;3.78;2.58;;;;;;;;;;5411083;26;20446;-68
2024/04/11 15:17:19;;;;;;;3.47;2.08;;;;;;;;;;5407962;26;20004;-66
2024/04/11 15:19:51;;;;;;;3.83;2.55;;;;;;;;;;5410491;26;20011;-67